createdAt,value
2018-09-15T00:00:32.317Z,3.50
2018-09-15T00:01:32.716Z,3.40
2018-09-15T00:02:33.084Z,3.90
2018-09-15T00:03:32.739Z,3.90
2018-09-15T00:04:33.076Z,3.20
2018-09-15T00:05:32.364Z,3.60
2018-09-15T00:06:32.698Z,3.50
2018-09-15T00:07:33.050Z,3.80
2018-09-15T00:08:32.754Z,3.20
2018-09-15T00:09:33.058Z,3.40
2018-09-15T00:10:32.342Z,3.40
2018-09-15T00:11:32.659Z,3.30
2018-09-15T00:12:32.643Z,3.40
2018-09-15T00:13:33.036Z,3.80
2018-09-15T00:14:33.029Z,3.50
2018-09-15T00:15:32.392Z,3.70
2018-09-15T00:16:32.653Z,3.80
2018-09-15T00:17:33.037Z,3.80
2018-09-15T00:18:34.562Z,3.90
2018-09-15T00:19:33.029Z,4.10
2018-09-15T00:20:32.282Z,3.90
2018-09-15T00:21:32.955Z,3.40
2018-09-15T00:22:33.003Z,3.50
2018-09-15T00:23:33.021Z,4.10
2018-09-15T00:24:33.120Z,3.80
2018-09-15T00:25:33.060Z,4.20
2018-09-15T00:26:33.135Z,4.10
2018-09-15T00:27:32.956Z,4.10
2018-09-15T00:28:32.973Z,4.20
2018-09-15T00:29:32.960Z,4.30
2018-09-15T00:30:34.917Z,4.40
2018-09-15T00:31:32.965Z,4.20
2018-09-15T00:32:33.039Z,4.70
2018-09-15T00:33:33.033Z,4.30
2018-09-15T00:34:32.946Z,4.90
2018-09-15T00:35:32.961Z,4.60
2018-09-15T00:36:33.057Z,4.20
2018-09-15T00:37:33.037Z,4.70
2018-09-15T00:38:33.031Z,4.70
2018-09-15T00:39:33.035Z,5.10
2018-09-15T00:40:33.039Z,5.00
2018-09-15T00:41:33.015Z,4.90
2018-09-15T00:42:33.009Z,4.60
2018-09-15T00:43:32.949Z,4.80
2018-09-15T00:44:33.032Z,4.90
2018-09-15T00:45:33.059Z,5.40
2018-09-15T00:46:32.968Z,4.90
2018-09-15T00:47:32.982Z,5.40
2018-09-15T00:48:33.048Z,5.00
2018-09-15T00:49:32.999Z,4.80
2018-09-15T00:52:06.214Z,5.40
2018-09-15T00:53:06.601Z,5.50
2018-09-15T00:55:00.599Z,4.90
2018-09-15T00:56:00.689Z,4.70
2018-09-15T00:57:54.748Z,4.80
2018-09-15T00:58:54.782Z,5.10
2018-09-15T01:00:49.199Z,5.00
2018-09-15T01:01:49.508Z,5.20
2018-09-15T01:03:46.972Z,4.90
2018-09-15T01:04:46.922Z,5.10
2018-09-15T01:05:47.543Z,4.90
2018-09-15T01:06:46.964Z,4.80
2018-09-15T01:07:47.545Z,5.10
2018-09-15T01:08:46.573Z,5.20
2018-09-15T01:09:46.949Z,4.90
2018-09-15T01:10:47.532Z,5.30
2018-09-15T01:11:46.948Z,5.00
2018-09-15T01:12:47.512Z,5.10
2018-09-15T01:13:47.504Z,5.70
2018-09-15T01:14:47.553Z,5.50
2018-09-15T01:15:47.528Z,5.00
2018-09-15T01:16:47.531Z,5.10
2018-09-15T01:17:47.525Z,5.10
2018-09-15T01:18:47.578Z,5.30
2018-09-15T01:19:47.517Z,5.40
2018-09-15T01:20:47.536Z,5.00
2018-09-15T01:21:47.571Z,5.30
2018-09-15T01:22:47.501Z,5.60
2018-09-15T01:23:47.554Z,5.70
2018-09-15T01:24:47.576Z,5.10
2018-09-15T01:25:47.527Z,5.20
2018-09-15T01:26:48.219Z,5.40
2018-09-15T01:27:47.554Z,5.60
2018-09-15T01:28:47.530Z,6.30
2018-09-15T01:29:47.594Z,5.70
2018-09-15T01:30:47.493Z,5.80
2018-09-15T01:31:47.576Z,5.40
2018-09-15T01:32:47.235Z,5.00
2018-09-15T01:33:49.128Z,5.70
2018-09-15T01:34:47.354Z,7.00
2018-09-15T01:35:49.308Z,7.40
2018-09-15T01:36:46.956Z,5.80
2018-09-15T01:37:47.436Z,5.20
2018-09-15T01:38:49.115Z,5.30
2018-09-15T01:39:47.363Z,5.20
2018-09-15T01:40:47.354Z,4.80
2018-09-15T01:41:47.347Z,5.20
2018-09-15T01:42:47.274Z,5.10
2018-09-15T01:43:47.271Z,5.10
2018-09-15T01:44:47.240Z,4.90
2018-09-15T01:45:47.129Z,4.80
2018-09-15T01:46:47.268Z,5.20
2018-09-15T01:47:47.253Z,4.90
2018-09-15T01:48:47.186Z,5.10
2018-09-15T01:49:47.149Z,5.30
2018-09-15T01:50:47.055Z,5.10
2018-09-15T01:51:47.145Z,4.70
2018-09-15T01:52:47.123Z,5.40
2018-09-15T01:53:47.064Z,4.80
2018-09-15T01:54:47.126Z,4.80
2018-09-15T01:55:47.217Z,5.00
2018-09-15T01:56:47.123Z,5.20
2018-09-15T01:57:47.114Z,5.00
2018-09-15T01:58:47.111Z,5.00
2018-09-15T01:59:47.096Z,5.10
2018-09-15T02:00:47.117Z,5.30
2018-09-15T02:01:47.194Z,5.10
2018-09-15T02:02:47.125Z,5.30
2018-09-15T02:03:46.803Z,4.80
2018-09-15T02:04:47.126Z,5.10
2018-09-15T02:05:47.086Z,5.10
2018-09-15T02:06:47.176Z,5.00
2018-09-15T02:07:47.168Z,5.30
2018-09-15T02:08:47.132Z,5.70
2018-09-15T02:09:47.197Z,5.30
2018-09-15T02:10:47.143Z,5.60
2018-09-15T02:11:47.161Z,5.70
2018-09-15T02:12:48.896Z,5.40
2018-09-15T02:13:47.186Z,5.30
2018-09-15T02:14:47.115Z,5.70
2018-09-15T02:15:49.001Z,5.40
2018-09-15T02:16:47.133Z,5.70
2018-09-15T02:18:47.127Z,6.10
2018-09-15T02:19:47.125Z,5.60
2018-09-15T02:20:47.086Z,5.50
2018-09-15T02:21:47.066Z,6.10
2018-09-15T02:22:47.205Z,5.70
2018-09-15T02:23:47.016Z,5.70
2018-09-15T02:24:47.028Z,6.10
2018-09-15T02:25:47.016Z,6.10
2018-09-15T02:26:47.050Z,6.40
2018-09-15T02:27:46.983Z,6.00
2018-09-15T02:28:48.029Z,5.50
2018-09-15T02:29:47.006Z,6.00
2018-09-15T02:30:47.738Z,6.20
2018-09-15T02:31:47.056Z,5.90
2018-09-15T02:32:47.050Z,6.10
2018-09-15T02:33:47.060Z,6.50
2018-09-15T02:34:47.054Z,6.60
2018-09-15T02:35:47.053Z,6.00
2018-09-15T02:36:47.028Z,6.40
2018-09-15T02:37:47.096Z,6.20
2018-09-15T02:38:47.097Z,6.30
2018-09-15T02:39:47.055Z,6.50
2018-09-15T02:40:47.097Z,5.90
2018-09-15T02:41:47.076Z,6.70
2018-09-15T02:42:47.021Z,6.10
2018-09-15T02:43:47.098Z,5.60
2018-09-15T02:44:47.118Z,6.60
2018-09-15T02:45:47.039Z,6.70
2018-09-15T02:46:47.056Z,6.70
2018-09-15T02:47:47.055Z,6.20
2018-09-15T02:48:47.097Z,6.60
2018-09-15T02:49:47.070Z,7.00
2018-09-15T02:50:48.883Z,7.10
2018-09-15T02:51:47.094Z,6.50
2018-09-15T02:52:49.248Z,7.00
2018-09-15T02:53:47.093Z,7.10
2018-09-15T02:54:47.360Z,6.70
2018-09-15T02:55:47.107Z,6.90
2018-09-15T02:56:49.249Z,6.70
2018-09-15T02:57:47.048Z,6.60
2018-09-15T02:58:47.005Z,7.00
2018-09-15T02:59:47.043Z,6.40
2018-09-15T03:00:46.952Z,6.90
2018-09-15T03:01:46.990Z,7.00
2018-09-15T03:02:47.071Z,6.80
2018-09-15T03:03:47.082Z,6.80
2018-09-15T03:04:47.011Z,6.90
2018-09-15T03:05:47.048Z,6.50
2018-09-15T03:06:47.056Z,7.40
2018-09-15T03:07:47.035Z,7.70
2018-09-15T03:08:47.013Z,7.00
2018-09-15T03:09:47.030Z,7.00
2018-09-15T03:10:47.081Z,7.10
2018-09-15T03:11:47.038Z,7.00
2018-09-15T03:12:47.052Z,7.00
2018-09-15T03:13:46.988Z,7.30
2018-09-15T03:14:47.046Z,7.30
2018-09-15T03:15:47.059Z,7.10
2018-09-15T03:16:47.018Z,7.70
2018-09-15T03:17:47.059Z,7.00
2018-09-15T03:18:47.109Z,7.40
2018-09-15T03:19:47.062Z,7.70
2018-09-15T03:20:47.039Z,7.80
2018-09-15T03:21:48.897Z,7.40
2018-09-15T03:22:47.052Z,7.10
2018-09-15T03:23:47.117Z,6.90
2018-09-15T03:24:47.045Z,7.70
2018-09-15T03:25:47.020Z,7.80
2018-09-15T03:26:47.066Z,7.90
2018-09-15T03:27:47.109Z,7.70
2018-09-15T03:28:49.065Z,7.90
2018-09-15T03:29:48.914Z,8.00
2018-09-15T03:30:47.044Z,7.60
2018-09-15T03:31:47.108Z,7.50
2018-09-15T03:32:47.026Z,7.70
2018-09-15T03:33:47.058Z,7.60
2018-09-15T03:34:47.028Z,8.10
2018-09-15T03:37:19.710Z,8.00
2018-09-15T03:38:19.753Z,7.80
2018-09-15T03:40:14.429Z,7.70
2018-09-15T03:41:14.933Z,8.00
2018-09-15T03:43:09.108Z,8.00
2018-09-15T03:44:09.211Z,8.20
2018-09-15T03:46:02.955Z,8.00
2018-09-15T03:47:03.291Z,8.50
2018-09-15T03:48:58.278Z,8.30
2018-09-15T03:49:58.417Z,7.80
2018-09-15T03:51:52.328Z,8.50
2018-09-15T03:52:53.070Z,8.40
2018-09-15T03:54:47.567Z,8.50
2018-09-15T03:55:47.744Z,9.00
2018-09-15T03:57:41.602Z,8.30
2018-09-15T03:58:42.357Z,8.90
2018-09-15T04:00:36.598Z,8.80
2018-09-15T04:01:36.680Z,8.90
2018-09-15T04:03:30.877Z,7.90
2018-09-15T04:04:31.285Z,8.30
2018-09-15T04:06:25.845Z,8.40
2018-09-15T04:07:26.012Z,8.10
2018-09-15T04:09:20.581Z,8.50
2018-09-15T04:10:20.168Z,9.00
2018-09-15T04:12:14.714Z,8.50
2018-09-15T04:13:14.746Z,8.50
2018-09-15T04:15:08.963Z,8.70
2018-09-15T04:16:09.341Z,8.80
2018-09-15T04:18:03.455Z,8.40
2018-09-15T04:19:03.487Z,8.40
2018-09-15T04:20:57.437Z,8.80
2018-09-15T04:21:57.717Z,8.40
2018-09-15T04:23:52.758Z,8.60
2018-09-15T04:24:52.882Z,8.10
2018-09-15T04:26:46.377Z,8.10
2018-09-15T04:27:46.553Z,8.00
2018-09-15T04:29:41.141Z,8.40
2018-09-15T04:30:41.234Z,8.60
2018-09-15T04:32:35.601Z,8.50
2018-09-15T04:33:35.928Z,8.40
2018-09-15T04:35:30.836Z,8.30
2018-09-15T04:36:31.075Z,8.30
2018-09-15T04:38:24.791Z,8.20
2018-09-15T04:39:25.199Z,8.10
2018-09-15T04:40:25.135Z,8.50
2018-09-15T04:41:25.100Z,8.60
2018-09-15T04:42:26.998Z,8.80
2018-09-15T04:43:25.176Z,7.80
2018-09-15T04:44:25.157Z,8.10
2018-09-15T04:45:25.221Z,8.40
2018-09-15T04:46:25.195Z,8.10
2018-09-15T04:47:25.169Z,8.20
2018-09-15T04:48:25.214Z,7.80
2018-09-15T04:49:27.371Z,8.30
2018-09-15T04:50:27.241Z,7.60
2018-09-15T04:51:25.179Z,7.70
2018-09-15T04:52:25.212Z,8.50
2018-09-15T04:53:25.147Z,8.00
2018-09-15T04:54:25.204Z,8.30
2018-09-15T04:55:25.206Z,8.10
2018-09-15T04:56:25.192Z,7.40
2018-09-15T04:57:25.145Z,7.40
2018-09-15T04:58:25.195Z,8.10
2018-09-15T04:59:25.239Z,8.10
2018-09-15T05:00:25.138Z,8.50
2018-09-15T05:01:25.174Z,7.90
2018-09-15T05:02:25.169Z,7.90
2018-09-15T05:03:25.165Z,8.00
2018-09-15T05:04:25.208Z,7.90
2018-09-15T05:05:25.207Z,8.10
2018-09-15T05:06:25.197Z,8.00
2018-09-15T05:07:25.386Z,7.60
2018-09-15T05:08:25.211Z,8.10
2018-09-15T05:09:25.206Z,8.00
2018-09-15T05:10:25.198Z,8.00
2018-09-15T05:11:25.196Z,8.00
2018-09-15T05:12:25.201Z,7.90
2018-09-15T05:13:25.213Z,8.70
2018-09-15T05:14:25.178Z,8.50
2018-09-15T05:15:25.184Z,8.60
2018-09-15T05:16:25.148Z,8.20
2018-09-15T05:17:25.376Z,9.00
2018-09-15T05:18:25.218Z,9.10
2018-09-15T05:19:27.052Z,8.50
2018-09-15T05:20:25.202Z,8.80
2018-09-15T05:21:25.212Z,8.30
2018-09-15T05:22:26.995Z,8.60
2018-09-15T05:23:26.999Z,8.50
2018-09-15T05:24:25.232Z,8.60
2018-09-15T05:25:25.227Z,8.60
2018-09-15T05:26:25.215Z,8.90
2018-09-15T05:27:25.194Z,8.50
2018-09-15T05:28:25.208Z,8.70
2018-09-15T05:29:25.227Z,8.40
2018-09-15T05:30:25.232Z,8.80
2018-09-15T05:31:25.173Z,9.00
2018-09-15T05:32:24.921Z,9.40
2018-09-15T05:33:24.872Z,9.20
2018-09-15T05:34:24.886Z,8.90
2018-09-15T05:35:24.968Z,8.60
2018-09-15T05:36:24.893Z,8.80
2018-09-15T05:37:24.843Z,8.50
2018-09-15T05:38:24.957Z,8.50
2018-09-15T05:39:24.840Z,9.20
2018-09-15T05:40:24.745Z,8.20
2018-09-15T05:41:24.786Z,9.10
2018-09-15T05:42:24.735Z,8.60
2018-09-15T05:43:24.849Z,8.40
2018-09-15T05:44:24.699Z,8.80
2018-09-15T05:45:25.052Z,8.50
2018-09-15T05:46:24.793Z,8.80
2018-09-15T05:47:24.846Z,8.80
2018-09-15T05:48:24.830Z,9.20
2018-09-15T05:49:24.987Z,9.20
2018-09-15T05:50:24.857Z,9.10
2018-09-15T05:51:24.917Z,8.10
2018-09-15T05:52:24.885Z,8.80
2018-09-15T05:53:24.805Z,10.00
2018-09-15T05:54:24.814Z,10.10
2018-09-15T05:55:24.787Z,9.30
2018-09-15T05:56:24.861Z,9.20
2018-09-15T05:57:24.460Z,8.90
2018-09-15T05:58:24.887Z,9.30
2018-09-15T05:59:24.888Z,8.80
2018-09-15T06:00:24.805Z,9.40
2018-09-15T06:01:24.872Z,9.70
2018-09-15T06:02:26.717Z,8.90
2018-09-15T06:03:24.856Z,9.20
2018-09-15T06:04:24.829Z,9.30
2018-09-15T06:05:30.703Z,9.00
2018-09-15T06:06:26.234Z,9.30
2018-09-15T06:07:24.817Z,8.80
2018-09-15T06:09:00.109Z,9.00
2018-09-15T06:09:24.072Z,8.60
2018-09-15T06:10:43.124Z,8.90
2018-09-15T06:12:23.197Z,9.10
2018-09-15T06:13:28.976Z,9.30
2018-09-15T06:14:23.001Z,8.90
2018-09-15T06:15:22.962Z,8.20
2018-09-15T06:16:22.951Z,8.70
2018-09-15T06:17:22.992Z,9.00
2018-09-15T06:18:22.944Z,8.20
2018-09-15T06:19:22.997Z,8.60
2018-09-15T06:20:22.973Z,8.70
2018-09-15T06:21:22.978Z,8.70
2018-09-15T06:22:22.985Z,8.50
2018-09-15T06:23:22.931Z,8.80
2018-09-15T06:24:22.992Z,8.90
2018-09-15T06:25:22.936Z,8.60
2018-09-15T06:26:24.756Z,8.30
2018-09-15T06:27:22.977Z,8.60
2018-09-15T06:28:22.963Z,8.50
2018-09-15T06:29:23.003Z,8.70
2018-09-15T06:30:23.040Z,8.30
2018-09-15T06:32:56.089Z,9.00
2018-09-15T06:33:55.944Z,9.00
2018-09-15T06:35:52.337Z,8.40
2018-09-15T06:36:52.564Z,8.30
2018-09-15T06:37:53.556Z,8.70
2018-09-15T06:38:53.061Z,8.60
2018-09-15T06:39:53.029Z,7.90
2018-09-15T06:40:52.687Z,8.20
2018-09-15T06:41:52.684Z,8.20
2018-09-15T06:42:53.283Z,8.30
2018-09-15T06:43:52.723Z,8.40
2018-09-15T06:44:53.526Z,8.20
2018-09-15T06:45:52.836Z,8.00
2018-09-15T06:46:52.691Z,7.80
2018-09-15T06:47:52.934Z,7.80
2018-09-15T06:48:53.036Z,7.90
2018-09-15T06:49:53.237Z,7.40
2018-09-15T06:50:52.585Z,7.90
2018-09-15T06:51:52.938Z,7.80
2018-09-15T06:52:52.951Z,7.40
2018-09-15T06:53:52.926Z,7.20
2018-09-15T06:54:52.943Z,8.30
2018-09-15T06:55:52.978Z,7.60
2018-09-15T06:56:52.952Z,7.30
2018-09-15T06:57:52.949Z,7.50
2018-09-15T06:58:52.939Z,7.60
2018-09-15T06:59:52.979Z,7.50
2018-09-15T07:00:53.028Z,7.50
2018-09-15T07:01:52.989Z,7.20
2018-09-15T07:02:53.034Z,7.70
2018-09-15T07:03:52.994Z,7.20
2018-09-15T07:04:52.957Z,7.10
2018-09-15T07:05:52.544Z,8.30
2018-09-15T07:06:53.059Z,7.60
2018-09-15T07:07:52.961Z,7.60
2018-09-15T07:08:53.016Z,8.20
2018-09-15T07:09:52.996Z,7.60
2018-09-15T07:10:52.996Z,7.50
2018-09-15T07:11:54.821Z,7.50
2018-09-15T07:12:52.980Z,7.80
2018-09-15T07:13:53.038Z,7.50
2018-09-15T07:14:53.008Z,7.50
2018-09-15T07:15:52.989Z,7.50
2018-09-15T07:16:53.042Z,7.20
2018-09-15T07:17:53.025Z,7.00
2018-09-15T07:18:53.026Z,7.30
2018-09-15T07:19:53.042Z,7.20
2018-09-15T07:20:53.043Z,6.70
2018-09-15T07:21:53.043Z,7.80
2018-09-15T07:22:52.978Z,7.20
2018-09-15T07:23:52.985Z,7.00
2018-09-15T07:24:52.999Z,7.50
2018-09-15T07:25:52.961Z,7.20
2018-09-15T07:26:52.986Z,6.60
2018-09-15T07:27:52.939Z,7.10
2018-09-15T07:28:52.925Z,7.20
2018-09-15T07:29:52.968Z,7.00
2018-09-15T07:30:52.979Z,7.00
2018-09-15T07:31:53.153Z,7.10
2018-09-15T07:32:53.000Z,6.80
2018-09-15T07:33:53.033Z,6.00
2018-09-15T07:34:53.071Z,7.30
2018-09-15T07:35:53.017Z,6.30
2018-09-15T07:36:53.017Z,7.00
2018-09-15T07:37:52.994Z,6.70
2018-09-15T07:38:52.986Z,6.40
2018-09-15T07:39:53.051Z,7.30
2018-09-15T07:40:52.983Z,6.80
2018-09-15T07:41:53.038Z,7.00
2018-09-15T07:42:53.013Z,6.70
2018-09-15T07:43:54.839Z,7.00
2018-09-15T07:44:53.172Z,6.50
2018-09-15T07:45:52.988Z,6.30
2018-09-15T07:46:52.980Z,6.60
2018-09-15T07:47:52.992Z,6.60
2018-09-15T07:48:53.000Z,6.90
2018-09-15T07:49:53.052Z,6.60
2018-09-15T07:50:52.977Z,6.70
2018-09-15T07:51:53.033Z,6.70
2018-09-15T07:52:53.041Z,6.60
2018-09-15T07:53:53.035Z,6.40
2018-09-15T07:54:52.989Z,6.50
2018-09-15T07:55:52.965Z,6.30
2018-09-15T07:56:53.003Z,6.80
2018-09-15T07:57:53.093Z,6.10
2018-09-15T07:58:53.046Z,6.60
2018-09-15T07:59:52.999Z,5.80
2018-09-15T08:00:53.069Z,6.40
2018-09-15T08:01:52.475Z,6.60
2018-09-15T08:02:52.856Z,6.60
2018-09-15T08:03:52.779Z,5.70
2018-09-15T08:04:52.539Z,6.60
2018-09-15T08:05:52.545Z,5.90
2018-09-15T08:06:52.539Z,5.90
2018-09-15T08:07:52.553Z,6.10
2018-09-15T08:08:52.645Z,6.30
2018-09-15T08:09:52.657Z,6.10
2018-09-15T08:10:52.761Z,6.40
2018-09-15T08:11:52.641Z,6.40
2018-09-15T08:12:52.671Z,6.50
2018-09-15T08:13:52.611Z,5.70
2018-09-15T08:14:52.740Z,5.90
2018-09-15T08:15:52.644Z,6.10
2018-09-15T08:16:52.965Z,6.10
2018-09-15T08:17:52.753Z,6.30
2018-09-15T08:18:52.317Z,6.30
2018-09-15T08:19:52.699Z,6.20
2018-09-15T08:20:52.729Z,6.00
2018-09-15T08:21:52.653Z,5.90
2018-09-15T08:22:52.721Z,5.80
2018-09-15T08:23:52.735Z,6.10
2018-09-15T08:24:52.644Z,5.50
2018-09-15T08:25:52.757Z,5.50
2018-09-15T08:26:52.746Z,5.80
2018-09-15T08:27:52.719Z,5.90
2018-09-15T08:28:52.829Z,5.60
2018-09-15T08:29:52.377Z,5.70
2018-09-15T08:30:52.797Z,6.00
2018-09-15T08:31:52.748Z,5.40
2018-09-15T08:32:52.756Z,5.60
2018-09-15T08:33:53.094Z,5.80
2018-09-15T08:34:52.818Z,5.50
2018-09-15T08:35:52.727Z,5.50
2018-09-15T08:36:52.716Z,5.70
2018-09-15T08:37:52.725Z,5.70
2018-09-15T08:38:52.645Z,5.40
2018-09-15T08:39:52.688Z,5.40
2018-09-15T08:40:52.692Z,5.70
2018-09-15T08:41:52.555Z,5.20
2018-09-15T08:42:52.507Z,5.50
2018-09-15T08:43:52.571Z,5.30
2018-09-15T08:44:54.420Z,5.90
2018-09-15T08:45:52.518Z,4.80
2018-09-15T08:46:52.502Z,5.80
2018-09-15T08:47:52.557Z,5.80
2018-09-15T08:48:52.542Z,5.90
2018-09-15T08:49:52.580Z,5.70
2018-09-15T08:50:52.484Z,5.90
2018-09-15T08:53:25.611Z,5.00
2018-09-15T08:54:25.887Z,5.40
2018-09-15T08:56:19.563Z,5.70
2018-09-15T08:57:19.877Z,6.00
2018-09-15T08:59:14.427Z,5.40
2018-09-15T09:00:16.665Z,5.30
2018-09-15T09:02:08.337Z,5.60
2018-09-15T09:03:08.817Z,5.60
2018-09-15T09:05:03.597Z,5.50
2018-09-15T09:06:29.416Z,5.60
2018-09-15T09:07:03.937Z,5.40
2018-09-15T09:08:03.941Z,5.70
2018-09-15T09:09:03.932Z,5.70
2018-09-15T09:10:03.923Z,5.50
2018-09-15T09:11:03.957Z,6.20
2018-09-15T09:13:03.967Z,5.60
2018-09-15T09:14:03.901Z,5.60
2018-09-15T09:15:03.926Z,5.70
2018-09-15T09:16:04.453Z,5.60
2018-09-15T09:17:03.601Z,5.70
2018-09-15T09:18:04.068Z,5.70
2018-09-15T09:19:04.464Z,6.00
2018-09-15T09:20:03.483Z,5.80
2018-09-15T09:21:04.500Z,5.80
2018-09-15T09:22:04.121Z,6.00
2018-09-15T09:23:04.129Z,5.70
2018-09-15T09:24:03.683Z,5.30
2018-09-15T09:25:03.930Z,5.60
2018-09-15T09:26:04.068Z,5.70
2018-09-15T09:27:03.936Z,5.80
2018-09-15T09:28:04.165Z,5.80
2018-09-15T09:29:03.685Z,5.60
2018-09-15T09:30:04.463Z,5.90
2018-09-15T09:31:03.361Z,6.80
2018-09-15T09:32:03.904Z,6.30
2018-09-15T09:33:03.971Z,6.90
2018-09-15T09:34:03.949Z,6.30
2018-09-15T09:35:26.347Z,6.50
2018-09-15T09:36:04.579Z,5.80
2018-09-15T09:37:04.250Z,6.20
2018-09-15T09:38:03.733Z,6.30
2018-09-15T09:39:03.948Z,6.80
2018-09-15T09:40:03.929Z,6.40
2018-09-15T09:41:06.004Z,5.90
2018-09-15T09:42:03.946Z,6.00
2018-09-15T09:43:03.948Z,6.20
2018-09-15T09:44:03.944Z,6.50
2018-09-15T09:46:50.388Z,6.30
2018-09-15T09:47:49.105Z,6.20
2018-09-15T09:48:50.674Z,5.70
2018-09-15T09:49:51.315Z,5.70
2018-09-15T09:50:50.167Z,5.30
2018-09-15T09:51:51.199Z,5.40
2018-09-15T09:52:50.700Z,5.80
2018-09-15T09:53:51.199Z,5.60
2018-09-15T09:54:49.934Z,5.30
2018-09-15T09:55:50.265Z,4.70
2018-09-15T09:56:50.744Z,5.70
2018-09-15T09:57:50.249Z,5.70
2018-09-15T09:58:50.835Z,5.60
2018-09-15T09:59:49.900Z,5.00
2018-09-15T10:00:50.074Z,5.60
2018-09-15T10:01:50.591Z,5.40
2018-09-15T10:02:50.155Z,5.50
2018-09-15T10:03:50.645Z,5.10
2018-09-15T10:04:50.337Z,5.20
2018-09-15T10:05:50.705Z,4.80
2018-09-15T10:06:50.165Z,5.30
2018-09-15T10:07:50.127Z,5.30
2018-09-15T10:08:50.656Z,5.50
2018-09-15T10:09:49.937Z,4.90
2018-09-15T10:10:50.199Z,4.60
2018-09-15T10:11:50.713Z,4.80
2018-09-15T10:12:51.032Z,4.50
2018-09-15T10:13:50.725Z,4.80
2018-09-15T10:14:50.244Z,5.10
2018-09-15T10:16:04.433Z,4.80
2018-09-15T10:16:50.170Z,4.60
2018-09-15T10:17:51.862Z,4.90
2018-09-15T10:18:50.870Z,4.60
2018-09-15T10:19:50.709Z,4.80
2018-09-15T10:20:50.733Z,4.50
2018-09-15T10:21:50.722Z,4.10
2018-09-15T10:22:52.675Z,4.30
2018-09-15T10:23:51.431Z,4.00
2018-09-15T10:24:50.944Z,3.80
2018-09-15T10:25:51.225Z,3.90
2018-09-15T10:26:50.718Z,4.10
2018-09-15T10:27:50.645Z,4.30
2018-09-15T10:28:50.613Z,4.00
2018-09-15T10:29:50.654Z,3.80
2018-09-15T10:30:50.654Z,3.70
2018-09-15T10:31:50.633Z,3.90
2018-09-15T10:32:50.636Z,4.10
2018-09-15T10:33:50.681Z,4.40
2018-09-15T10:34:50.171Z,4.70
2018-09-15T10:35:51.288Z,4.40
2018-09-15T10:36:52.995Z,4.30
2018-09-15T10:37:50.436Z,4.70
2018-09-15T10:38:50.645Z,4.60
2018-09-15T10:39:50.675Z,4.50
2018-09-15T10:40:50.180Z,4.10
2018-09-15T10:41:52.679Z,4.90
2018-09-15T10:42:51.656Z,4.40
2018-09-15T10:43:50.707Z,4.40
2018-09-15T10:44:50.669Z,4.30
2018-09-15T10:45:52.741Z,4.30
2018-09-15T10:46:50.724Z,5.20
2018-09-15T10:47:52.476Z,6.40
2018-09-15T10:48:50.679Z,7.00
2018-09-15T10:49:50.728Z,4.70
2018-09-15T10:51:11.724Z,5.40
2018-09-15T10:51:50.709Z,4.50
2018-09-15T10:52:50.714Z,4.50
2018-09-15T10:53:50.672Z,4.30
2018-09-15T10:54:53.003Z,4.10
2018-09-15T10:55:50.619Z,4.10
2018-09-15T10:56:53.365Z,4.20
2018-09-15T10:57:50.141Z,4.30
2018-09-15T10:58:51.342Z,3.80
2018-09-15T10:59:50.977Z,3.90
2018-09-15T11:00:50.982Z,3.90
2018-09-15T11:01:52.963Z,4.00
2018-09-15T11:02:52.136Z,3.90
2018-09-15T11:03:50.693Z,4.10
2018-09-15T11:04:50.682Z,3.80
2018-09-15T11:05:50.713Z,4.40
2018-09-15T11:06:50.941Z,4.00
2018-09-15T11:07:50.460Z,4.10
2018-09-15T11:08:50.893Z,6.80
2018-09-15T11:09:52.897Z,6.50
